createdAt,value
2019-02-02T00:01:02.384Z,50.00
2019-02-02T00:03:31.069Z,50.20
2019-02-02T00:06:02.855Z,50.80
2019-02-02T00:08:31.826Z,50.90
2019-02-02T00:11:05.286Z,50.80
2019-02-02T00:13:34.109Z,50.50
2019-02-02T00:16:02.887Z,50.50
2019-02-02T00:18:31.688Z,50.50
2019-02-02T00:21:01.253Z,50.20
2019-02-02T00:23:30.194Z,49.90
2019-02-02T00:25:59.081Z,49.60
2019-02-02T00:28:27.742Z,49.30
2019-02-02T00:30:56.466Z,49.20
2019-02-02T00:33:25.956Z,48.90
2019-02-02T00:35:54.645Z,49.00
2019-02-02T00:38:23.443Z,49.10
2019-02-02T00:40:52.220Z,49.10
2019-02-02T00:43:21.122Z,49.10
2019-02-02T00:45:49.807Z,48.80
2019-02-02T00:48:18.587Z,48.80
2019-02-02T00:50:56.079Z,48.50
2019-02-02T00:53:24.869Z,48.60
2019-02-02T00:55:53.556Z,48.40
2019-02-02T00:58:22.226Z,48.30
2019-02-02T01:00:50.960Z,48.10
2019-02-02T01:03:19.697Z,48.10
2019-02-02T01:05:48.472Z,47.90
2019-02-02T01:08:17.521Z,48.10
2019-02-02T01:10:49.931Z,48.30
2019-02-02T01:13:18.839Z,48.20
2019-02-02T01:15:48.901Z,48.40
2019-02-02T01:18:19.830Z,48.60
2019-02-02T01:20:58.365Z,48.60
2019-02-02T01:23:35.760Z,48.30
2019-02-02T01:29:05.691Z,48.30
2019-02-02T01:31:44.699Z,48.60
2019-02-02T01:34:39.397Z,48.40
2019-02-02T01:36:58.644Z,48.60
2019-02-02T01:39:27.447Z,48.60
2019-02-02T01:41:56.111Z,48.70
2019-02-02T01:44:24.823Z,48.70
2019-02-02T01:46:53.609Z,48.80
2019-02-02T01:49:22.275Z,49.10
2019-02-02T01:51:50.971Z,49.20
2019-02-02T01:54:19.771Z,49.20
2019-02-02T01:56:48.434Z,49.20
2019-02-02T01:59:17.123Z,49.00
2019-02-02T02:01:45.912Z,49.00
2019-02-02T02:04:14.619Z,49.20
2019-02-02T02:06:43.282Z,50.10
2019-02-02T02:09:12.073Z,50.10
2019-02-02T02:11:40.727Z,49.80
2019-02-02T02:14:09.451Z,49.80
2019-02-02T02:16:38.468Z,49.90
2019-02-02T02:19:07.253Z,50.00
2019-02-02T02:21:36.047Z,50.10
2019-02-02T02:24:04.766Z,50.00
2019-02-02T02:26:34.414Z,50.10
2019-02-02T02:29:03.335Z,50.00
2019-02-02T02:31:33.762Z,49.80
2019-02-02T02:34:02.415Z,49.80
2019-02-02T02:36:31.130Z,49.70
2019-02-02T02:38:59.893Z,50.00
2019-02-02T02:41:28.583Z,50.30
2019-02-02T02:43:57.267Z,50.40
2019-02-02T02:46:26.079Z,49.90
2019-02-02T02:48:54.765Z,49.70
2019-02-02T02:51:23.659Z,49.60
2019-02-02T02:53:52.427Z,49.30
2019-02-02T02:56:21.131Z,49.30
2019-02-02T02:58:49.763Z,49.50
2019-02-02T03:01:18.811Z,49.70
2019-02-02T03:03:47.618Z,49.50
2019-02-02T03:06:16.367Z,49.30
2019-02-02T03:08:45.155Z,49.50
2019-02-02T03:11:13.865Z,49.60
2019-02-02T03:13:42.551Z,49.80
2019-02-02T03:16:11.348Z,49.60
2019-02-02T03:18:40.335Z,49.40
2019-02-02T03:21:09.000Z,49.60
2019-02-02T03:23:38.118Z,49.60
2019-02-02T03:26:06.907Z,49.60
2019-02-02T03:28:36.498Z,49.60
2019-02-02T03:31:05.407Z,49.50
2019-02-02T03:33:34.099Z,49.50
2019-02-02T03:36:02.982Z,49.50
2019-02-02T03:38:31.753Z,49.80
2019-02-02T03:41:00.565Z,49.80
2019-02-02T03:43:29.248Z,49.70
2019-02-02T03:45:58.035Z,49.70
2019-02-02T03:48:26.722Z,50.00
2019-02-02T03:50:55.409Z,50.20
2019-02-02T03:53:24.197Z,50.00
2019-02-02T03:55:52.987Z,49.80
2019-02-02T03:58:21.672Z,49.80
2019-02-02T04:00:50.386Z,50.00
2019-02-02T04:03:19.150Z,50.10
2019-02-02T04:05:47.841Z,50.00
2019-02-02T04:08:16.732Z,50.10
2019-02-02T04:10:45.621Z,50.30
2019-02-02T04:13:14.412Z,50.50
2019-02-02T04:15:43.170Z,50.70
2019-02-02T04:18:11.986Z,50.80
2019-02-02T04:20:40.850Z,51.00
2019-02-02T04:23:09.668Z,50.80
2019-02-02T04:25:38.439Z,50.60
2019-02-02T04:28:07.123Z,51.50
2019-02-02T04:30:35.928Z,51.20
2019-02-02T04:33:04.586Z,51.30
2019-02-02T04:35:33.276Z,51.40
2019-02-02T04:38:02.090Z,51.40
2019-02-02T04:40:30.752Z,51.40
2019-02-02T04:43:01.769Z,51.40
2019-02-02T04:45:29.891Z,51.30
2019-02-02T04:47:58.577Z,51.20
2019-02-02T04:50:27.347Z,51.40
2019-02-02T04:52:56.256Z,51.70
2019-02-02T04:55:24.913Z,51.70
2019-02-02T04:57:53.630Z,51.80
2019-02-02T05:00:27.335Z,51.70
2019-02-02T05:02:55.995Z,51.90
2019-02-02T05:05:24.706Z,52.00
2019-02-02T05:07:53.637Z,52.00
2019-02-02T05:10:25.559Z,52.20
2019-02-02T05:12:54.350Z,52.40
2019-02-02T05:15:24.676Z,52.70
2019-02-02T05:17:53.574Z,52.90
2019-02-02T05:20:22.358Z,52.70
2019-02-02T05:22:51.149Z,52.60
2019-02-02T05:25:19.831Z,52.60
2019-02-02T05:27:49.032Z,52.50
2019-02-02T05:30:23.760Z,52.50
2019-02-02T05:32:53.367Z,52.70
2019-02-02T05:35:22.057Z,52.60
2019-02-02T05:37:50.817Z,53.10
2019-02-02T05:40:20.887Z,53.40
2019-02-02T05:42:49.633Z,53.50
2019-02-02T05:45:20.011Z,53.80
2019-02-02T05:47:48.845Z,54.00
2019-02-02T05:50:19.412Z,53.90
2019-02-02T05:52:48.258Z,53.90
2019-02-02T05:55:18.717Z,54.40
2019-02-02T05:57:50.578Z,53.40
2019-02-02T06:00:26.738Z,53.20
2019-02-02T06:02:55.525Z,53.30
2019-02-02T06:05:24.210Z,53.50
2019-02-02T06:08:07.231Z,53.70
2019-02-02T06:10:35.999Z,53.90
2019-02-02T06:13:04.709Z,54.10
2019-02-02T06:15:33.495Z,53.90
2019-02-02T06:18:02.203Z,53.80
2019-02-02T06:20:43.531Z,53.80
2019-02-02T06:23:13.043Z,54.20
2019-02-02T06:25:41.759Z,54.30
2019-02-02T06:28:10.426Z,54.40
2019-02-02T06:30:39.224Z,54.30
2019-02-02T06:33:08.136Z,54.30
2019-02-02T06:35:37.736Z,54.20
2019-02-02T06:38:06.535Z,54.00
2019-02-02T06:40:35.314Z,53.90
2019-02-02T06:43:03.974Z,53.70
2019-02-02T06:45:37.048Z,53.50
2019-02-02T06:48:05.751Z,53.40
2019-02-02T06:50:34.562Z,53.50
2019-02-02T06:53:03.338Z,53.40
2019-02-02T06:55:32.244Z,53.30
2019-02-02T06:58:04.186Z,53.20
2019-02-02T07:00:33.099Z,53.10
2019-02-02T07:03:02.170Z,53.20
2019-02-02T07:05:33.706Z,53.30
2019-02-02T07:08:01.596Z,53.40
2019-02-02T07:10:30.702Z,53.80
2019-02-02T07:12:59.500Z,54.20
2019-02-02T07:15:31.749Z,54.70
2019-02-02T07:18:00.457Z,55.00
2019-02-02T07:20:29.144Z,54.90
2019-02-02T07:22:58.341Z,55.30
2019-02-02T07:25:27.029Z,55.90
2019-02-02T07:27:55.715Z,56.10
2019-02-02T07:30:29.601Z,55.40
2019-02-02T07:32:55.650Z,55.00
2019-02-02T07:35:25.958Z,55.70
2019-02-02T07:37:58.653Z,56.20
2019-02-02T07:40:27.341Z,56.00
2019-02-02T07:42:57.914Z,55.70
2019-02-02T07:45:52.878Z,55.80
2019-02-02T07:48:21.667Z,55.80
2019-02-02T07:50:50.656Z,54.90
2019-02-02T07:53:19.446Z,54.90
2019-02-02T07:55:48.337Z,54.50
2019-02-02T07:58:17.102Z,54.60
2019-02-02T08:00:48.607Z,54.40
2019-02-02T08:03:17.160Z,54.50
2019-02-02T08:05:48.075Z,54.40
2019-02-02T08:08:22.741Z,54.30
2019-02-02T08:10:51.620Z,53.20
2019-02-02T08:13:20.409Z,52.60
2019-02-02T08:15:49.199Z,51.80
2019-02-02T08:18:19.646Z,51.30
2019-02-02T08:20:48.412Z,51.70
2019-02-02T08:23:17.303Z,52.00
2019-02-02T08:25:46.206Z,51.00
2019-02-02T08:28:14.926Z,51.90
2019-02-02T08:30:52.072Z,51.40
2019-02-02T08:33:25.239Z,50.70
2019-02-02T08:35:54.017Z,50.80
2019-02-02T08:38:22.880Z,50.60
2019-02-02T08:40:52.382Z,50.80
2019-02-02T08:43:21.243Z,51.70
2019-02-02T08:45:49.990Z,51.30
2019-02-02T08:48:18.757Z,50.50
2019-02-02T08:50:47.442Z,49.90
2019-02-02T08:53:16.226Z,49.50
2019-02-02T08:55:44.900Z,50.00
2019-02-02T08:58:13.811Z,48.70
2019-02-02T09:00:42.761Z,48.20
2019-02-02T09:03:11.555Z,48.20
2019-02-02T09:05:40.223Z,48.30
2019-02-02T09:08:09.034Z,47.90
2019-02-02T09:10:37.699Z,47.50
2019-02-02T09:13:06.508Z,47.00
2019-02-02T09:15:35.303Z,46.70
2019-02-02T09:18:03.988Z,46.70
2019-02-02T09:20:32.758Z,46.50
2019-02-02T09:23:06.250Z,46.50
2019-02-02T09:25:31.951Z,46.10
2019-02-02T09:28:00.639Z,46.20
2019-02-02T09:30:34.853Z,46.10
2019-02-02T09:33:03.778Z,45.90
2019-02-02T09:35:32.410Z,45.60
2019-02-02T09:38:01.253Z,45.40
2019-02-02T09:40:30.078Z,45.10
2019-02-02T09:42:58.895Z,44.80
2019-02-02T09:45:28.023Z,44.70
2019-02-02T09:47:56.791Z,44.60
2019-02-02T09:50:28.574Z,44.80
2019-02-02T09:52:57.434Z,44.60
2019-02-02T09:55:26.737Z,45.20
2019-02-02T09:58:01.433Z,45.40
2019-02-02T10:00:31.792Z,45.10
2019-02-02T10:03:00.707Z,44.70
2019-02-02T10:05:30.731Z,44.30
2019-02-02T10:07:59.519Z,44.40
2019-02-02T10:10:30.042Z,44.30
2019-02-02T10:12:58.836Z,44.30
2019-02-02T10:15:27.622Z,44.30
2019-02-02T10:17:56.514Z,44.70
2019-02-02T10:20:31.686Z,43.80
2019-02-02T10:23:01.170Z,44.00
2019-02-02T10:25:31.302Z,44.00
2019-02-02T10:28:00.066Z,44.40
2019-02-02T10:30:30.657Z,43.70
2019-02-02T10:32:59.484Z,43.40
2019-02-02T10:35:28.272Z,43.10
2019-02-02T10:37:56.959Z,42.50
2019-02-02T10:40:25.670Z,42.30
2019-02-02T10:42:54.432Z,42.50
2019-02-02T10:45:24.040Z,42.90
2019-02-02T10:47:52.807Z,41.80
2019-02-02T10:50:26.344Z,42.10
2019-02-02T10:52:55.099Z,41.20
2019-02-02T10:55:23.915Z,41.10
2019-02-02T10:57:52.905Z,41.50
2019-02-02T11:00:23.534Z,41.80
2019-02-02T11:02:52.200Z,41.40
2019-02-02T11:05:21.081Z,41.40
2019-02-02T11:07:50.066Z,42.70
2019-02-02T11:10:28.136Z,41.80
2019-02-02T11:12:56.936Z,40.50
2019-02-02T11:15:26.057Z,41.00
2019-02-02T11:17:55.087Z,41.30
2019-02-02T11:20:29.923Z,41.80
2019-02-02T11:23:00.556Z,41.60
2019-02-02T11:25:29.763Z,40.90
2019-02-02T11:27:58.445Z,40.90
2019-02-02T11:30:30.963Z,40.50
2019-02-02T11:33:20.840Z,40.70
2019-02-02T11:35:49.557Z,40.50
2019-02-02T11:38:18.374Z,40.50
2019-02-02T11:40:47.060Z,40.30
2019-02-02T11:43:15.951Z,40.20
2019-02-02T11:45:46.008Z,40.30
2019-02-02T11:48:15.030Z,40.00
2019-02-02T11:50:44.161Z,39.40
2019-02-02T11:53:12.849Z,39.40
2019-02-02T11:55:41.530Z,39.70
2019-02-02T11:58:10.235Z,39.90
2019-02-02T12:00:41.176Z,39.30
2019-02-02T12:03:09.929Z,39.40
2019-02-02T12:05:38.840Z,39.20
2019-02-02T12:08:07.506Z,38.50
2019-02-02T12:10:36.502Z,38.10
2019-02-02T12:13:05.514Z,38.40
2019-02-02T12:15:34.231Z,38.50
2019-02-02T12:18:02.972Z,38.10
2019-02-02T12:20:33.339Z,37.50
2019-02-02T12:23:02.084Z,37.10
2019-02-02T12:25:30.789Z,37.00
2019-02-02T12:27:59.554Z,37.20
2019-02-02T12:30:30.423Z,37.10
2019-02-02T12:32:59.191Z,37.60
2019-02-02T12:35:29.352Z,37.00
2019-02-02T12:37:58.088Z,37.70
2019-02-02T12:40:27.599Z,37.90
2019-02-02T12:42:56.409Z,38.30
2019-02-02T12:45:31.020Z,38.50
2019-02-02T12:47:59.908Z,38.60
2019-02-02T12:50:28.820Z,38.80
2019-02-02T12:52:57.502Z,38.80
2019-02-02T12:55:26.306Z,38.40
2019-02-02T12:57:55.080Z,38.70
2019-02-02T13:00:23.744Z,38.90
2019-02-02T13:02:52.556Z,38.70
2019-02-02T13:05:22.511Z,38.50
2019-02-02T13:07:51.259Z,38.50
2019-02-02T13:10:24.684Z,38.40
2019-02-02T13:12:52.906Z,38.20
2019-02-02T13:15:21.731Z,38.00
2019-02-02T13:17:50.811Z,38.40
2019-02-02T13:20:19.818Z,38.80
2019-02-02T13:22:48.599Z,38.90
2019-02-02T13:25:22.285Z,39.20
2019-02-02T13:27:50.992Z,38.10
2019-02-02T13:30:31.120Z,38.70
2019-02-02T13:32:59.936Z,37.80
2019-02-02T13:35:30.790Z,38.00
2019-02-02T13:37:59.804Z,38.20
2019-02-02T13:40:28.745Z,37.80
2019-02-02T13:42:57.449Z,38.30
2019-02-02T13:45:26.234Z,38.60
2019-02-02T13:47:54.903Z,38.90
2019-02-02T13:50:23.572Z,38.60
2019-02-02T13:52:52.650Z,38.30
2019-02-02T13:55:21.398Z,38.50
2019-02-02T13:57:50.260Z,38.60
2019-02-02T14:00:24.714Z,39.00
2019-02-02T14:03:02.301Z,39.20
2019-02-02T14:05:23.959Z,39.00
2019-02-02T14:07:52.813Z,39.50
2019-02-02T14:10:24.159Z,39.40
2019-02-02T14:12:52.847Z,39.50
2019-02-02T14:15:21.613Z,39.10
2019-02-02T14:17:50.294Z,39.10
2019-02-02T14:20:19.212Z,39.20
2019-02-02T14:22:48.109Z,38.90
2019-02-02T14:25:16.995Z,39.40
2019-02-02T14:27:45.689Z,39.30
2019-02-02T14:30:19.254Z,38.60
2019-02-02T14:32:48.143Z,38.50
2019-02-02T14:35:18.813Z,38.60
2019-02-02T14:37:47.569Z,39.00
2019-02-02T14:40:20.567Z,40.00
2019-02-02T14:42:49.271Z,40.20
2019-02-02T14:45:20.729Z,40.40
2019-02-02T14:47:49.511Z,41.10
2019-02-02T14:50:19.856Z,40.70
2019-02-02T14:52:50.389Z,40.90
2019-02-02T14:55:24.434Z,40.50
2019-02-02T14:57:53.373Z,40.70
2019-02-02T15:00:31.814Z,41.10
2019-02-02T15:03:03.273Z,41.00
2019-02-02T15:05:42.703Z,40.90
2019-02-02T15:08:03.274Z,41.20
2019-02-02T15:10:32.062Z,40.80
2019-02-02T15:13:00.751Z,41.20
2019-02-02T15:15:29.536Z,41.10
2019-02-02T15:17:58.431Z,41.20
2019-02-02T15:20:33.255Z,42.00
2019-02-02T15:23:02.043Z,41.70
2019-02-02T15:25:30.835Z,41.20
2019-02-02T15:27:59.609Z,41.60
2019-02-02T15:30:30.870Z,41.70
2019-02-02T15:33:00.072Z,41.50
2019-02-02T15:35:28.959Z,41.30
2019-02-02T15:37:57.730Z,41.30
2019-02-02T15:40:26.518Z,41.60
2019-02-02T15:42:55.433Z,41.50
2019-02-02T15:45:26.424Z,41.80
2019-02-02T15:47:55.140Z,41.80
2019-02-02T15:50:23.947Z,41.70
2019-02-02T15:52:52.750Z,41.50
2019-02-02T15:55:25.415Z,41.60
2019-02-02T15:57:54.407Z,42.00
2019-02-02T16:00:37.077Z,42.20
2019-02-02T16:03:07.025Z,42.50
2019-02-02T16:05:36.215Z,42.70
2019-02-02T16:08:08.378Z,42.90
2019-02-02T16:10:37.182Z,42.90
2019-02-02T16:13:06.196Z,43.00
2019-02-02T16:15:35.085Z,43.10
2019-02-02T16:18:03.812Z,43.20
2019-02-02T16:20:42.260Z,44.10
2019-02-02T16:23:11.707Z,44.80
2019-02-02T16:25:40.783Z,45.00
2019-02-02T16:28:09.588Z,45.20
2019-02-02T16:30:38.463Z,45.60
2019-02-02T16:33:07.256Z,45.30
2019-02-02T16:35:54.764Z,45.00
2019-02-02T16:38:23.574Z,44.70
2019-02-02T16:40:52.333Z,44.60
2019-02-02T16:43:21.332Z,45.10
2019-02-02T16:45:50.145Z,45.40
2019-02-02T16:48:18.930Z,45.70
2019-02-02T16:50:47.718Z,45.80
2019-02-02T16:53:16.506Z,46.60
2019-02-02T16:55:45.192Z,46.80
2019-02-02T16:58:15.013Z,46.90
2019-02-02T17:00:43.899Z,47.50
2019-02-02T17:03:12.720Z,47.60
2019-02-02T17:05:41.578Z,47.50
2019-02-02T17:08:10.468Z,47.60
2019-02-02T17:10:39.256Z,47.90
2019-02-02T17:13:08.236Z,47.90
2019-02-02T17:15:36.949Z,47.80
2019-02-02T17:18:05.801Z,47.90
2019-02-02T17:20:42.577Z,48.00
2019-02-02T17:23:11.374Z,47.90
2019-02-02T17:25:40.064Z,48.20
2019-02-02T17:28:09.248Z,48.00
2019-02-02T17:30:38.089Z,48.10
2019-02-02T17:33:09.625Z,48.30
2019-02-02T17:35:38.494Z,48.50
2019-02-02T17:38:07.314Z,48.90
2019-02-02T17:40:36.090Z,49.20
2019-02-02T17:43:05.083Z,49.20
2019-02-02T17:45:33.871Z,49.50
2019-02-02T17:48:02.659Z,49.80
2019-02-02T17:50:31.449Z,50.50
2019-02-02T17:53:00.240Z,51.30
2019-02-02T17:55:29.032Z,52.50
2019-02-02T17:57:58.011Z,52.20
2019-02-02T18:00:34.470Z,53.80
2019-02-02T18:03:03.483Z,54.30
2019-02-02T18:05:32.272Z,53.70
2019-02-02T18:08:00.938Z,53.60
2019-02-02T18:10:29.722Z,53.20
2019-02-02T18:12:58.538Z,53.00
2019-02-02T18:15:27.326Z,53.20
2019-02-02T18:17:56.195Z,54.40
2019-02-02T18:20:24.995Z,55.50
2019-02-02T18:22:53.780Z,56.20
2019-02-02T18:25:22.789Z,56.70
2019-02-02T18:27:51.456Z,57.10
2019-02-02T18:30:25.190Z,58.00
2019-02-02T18:32:57.043Z,58.40
2019-02-02T18:35:25.724Z,58.60
2019-02-02T18:37:54.497Z,58.40
2019-02-02T18:40:26.564Z,58.60
2019-02-02T18:42:55.355Z,58.80
2019-02-02T18:45:30.738Z,59.30
2019-02-02T18:47:59.756Z,59.60
2019-02-02T18:50:28.704Z,59.80
2019-02-02T18:52:59.439Z,59.90
2019-02-02T18:55:34.163Z,60.00
2019-02-02T18:58:02.951Z,60.20
2019-02-02T19:00:31.949Z,59.70
2019-02-02T19:03:01.529Z,59.40
2019-02-02T19:05:30.342Z,58.90
2019-02-02T19:07:59.134Z,58.40
2019-02-02T19:10:30.611Z,57.40
2019-02-02T19:12:59.356Z,57.00
2019-02-02T19:15:28.466Z,56.60
2019-02-02T19:17:57.153Z,56.30
2019-02-02T19:20:25.839Z,55.40
2019-02-02T19:22:57.072Z,56.20
2019-02-02T19:25:25.248Z,55.20
2019-02-02T19:27:53.946Z,54.20
2019-02-02T19:30:31.213Z,53.10
2019-02-02T19:33:00.109Z,53.20
2019-02-02T19:35:28.813Z,53.60
2019-02-02T19:37:58.114Z,54.50
2019-02-02T19:40:26.879Z,53.20
2019-02-02T19:42:55.794Z,52.30
2019-02-02T19:45:26.470Z,52.70
2019-02-02T19:47:55.426Z,51.30
2019-02-02T19:50:55.122Z,51.30
2019-02-02T19:53:24.788Z,51.10
2019-02-02T19:55:53.485Z,51.10
2019-02-02T19:58:22.469Z,50.80
2019-02-02T20:00:51.237Z,51.00
2019-02-02T20:03:20.482Z,50.50
2019-02-02T20:05:49.305Z,50.30
2019-02-02T20:08:17.964Z,50.20
2019-02-02T20:10:46.632Z,49.30
2019-02-02T20:13:15.462Z,48.70
2019-02-02T20:15:44.094Z,48.90
2019-02-02T20:18:12.838Z,49.60
2019-02-02T20:20:41.611Z,50.40
2019-02-02T20:23:10.332Z,50.20
2019-02-02T20:25:39.041Z,49.90
2019-02-02T20:28:08.588Z,49.30
2019-02-02T20:30:37.331Z,49.10
2019-02-02T20:33:06.184Z,50.00
2019-02-02T20:35:42.138Z,48.00
2019-02-02T20:38:06.020Z,48.20
2019-02-02T20:40:34.966Z,48.10
2019-02-02T20:45:42.033Z,48.00
2019-02-02T20:48:11.001Z,48.10
2019-02-02T20:50:39.642Z,48.40
2019-02-02T20:53:08.579Z,47.80
2019-02-02T20:55:40.706Z,48.60
2019-02-02T20:58:09.635Z,48.10
2019-02-02T21:00:38.456Z,48.50
2019-02-02T21:03:07.499Z,48.30
2019-02-02T21:05:36.207Z,48.80
2019-02-02T21:08:05.281Z,49.60
2019-02-02T21:10:34.041Z,49.50
2019-02-02T21:13:02.721Z,49.40
2019-02-02T21:15:31.388Z,49.50
2019-02-02T21:18:00.152Z,50.50
2019-02-02T21:20:30.451Z,51.30
2019-02-02T21:22:59.221Z,51.70
2019-02-02T21:25:28.959Z,51.80
2019-02-02T21:27:57.648Z,51.90
2019-02-02T21:30:28.120Z,52.00
2019-02-02T21:32:56.931Z,51.80
2019-02-02T21:35:25.591Z,52.50
2019-02-02T21:37:55.901Z,53.00
2019-02-02T21:40:30.315Z,53.00
2019-02-02T21:42:59.099Z,53.50
2019-02-02T21:45:27.889Z,54.10
2019-02-02T21:47:56.678Z,54.60
2019-02-02T21:50:26.269Z,54.70
2019-02-02T21:52:55.280Z,55.50
2019-02-02T21:55:25.993Z,55.80
2019-02-02T21:57:55.432Z,56.20
2019-02-02T22:00:27.914Z,56.00
2019-02-02T22:02:56.673Z,56.60
2019-02-02T22:08:21.281Z,57.50
2019-02-02T22:10:49.941Z,57.40
2019-02-02T22:13:18.642Z,57.10
2019-02-02T22:15:47.424Z,56.60
2019-02-02T22:18:16.346Z,56.40
2019-02-02T22:20:45.140Z,55.60
2019-02-02T22:23:14.107Z,55.10
2019-02-02T22:25:42.806Z,54.70
2019-02-02T22:28:11.916Z,54.10
2019-02-02T22:30:40.809Z,53.60
2019-02-02T22:33:09.577Z,52.70
2019-02-02T22:35:38.789Z,51.60
2019-02-02T22:38:07.558Z,50.40
2019-02-02T22:40:36.368Z,49.80
2019-02-02T22:43:05.171Z,49.30
2019-02-02T22:45:34.065Z,48.60
2019-02-02T22:48:02.744Z,48.40
2019-02-02T22:50:31.917Z,48.20
2019-02-02T22:53:00.653Z,48.50
2019-02-02T22:55:29.386Z,48.50
2019-02-02T22:57:58.074Z,47.80
2019-02-02T23:00:58.015Z,47.40
2019-02-02T23:03:30.062Z,47.30
2019-02-02T23:06:19.963Z,47.00
2019-02-02T23:09:08.209Z,47.40
2019-02-02T23:11:49.719Z,46.80
2019-02-02T23:14:54.884Z,47.50
2019-02-02T23:17:23.629Z,47.90
2019-02-02T23:19:52.348Z,47.70
2019-02-02T23:22:21.045Z,47.50
2019-02-02T23:24:50.082Z,47.60
2019-02-02T23:27:18.740Z,47.90
2019-02-02T23:29:47.399Z,46.90
2019-02-02T23:32:16.154Z,47.80
2019-02-02T23:34:44.834Z,47.90
2019-02-02T23:37:13.521Z,48.70
2019-02-02T23:39:42.599Z,48.60
2019-02-02T23:42:11.262Z,48.80
2019-02-02T23:44:39.930Z,49.10
2019-02-02T23:47:08.634Z,49.10
2019-02-02T23:49:37.743Z,49.00
2019-02-02T23:52:06.421Z,50.10
2019-02-02T23:54:35.122Z,49.10
2019-02-02T23:57:03.822Z,49.50
2019-02-02T23:59:35.147Z,50.10
